KPLR/PLR METAR and TAF weather

Enter ICAO airport designator
Station Type Date Time Source
KPLR METAR 2022/12/08 12:55 UTC NOAA

KPLR 081255Z AUTO 00000KT M1/4SM FG OVC002 13/13 A3024 RMK A01


Station Type Date Time Source
KPLR Decoded METAR 2022/12/08 12:55 UTC NOAA

Station name not available
Dec 08, 2022 - 07:55 AM EST / 2022.12.08 1255 UTC
Wind: Calm:0
Visibility: less than 1/4 mile(s):1
Sky conditions: overcast
Weather: fog
Temperature: 55 F (13 C)
Dew Point: 55 F (13 C)
Relative Humidity: 100%
Pressure (altimeter): 30.24 in. Hg (1024 hPa)
ob: KPLR 081255Z AUTO 00000KT M1/4SM FG OVC002 13/13 A3024 RMK A01
cycle: 13

Station Type Date Time Source
KPLR TAF UTC NOAA

Error!

Example: see airport list